sensor_id;sensor_type;location;lat;lon;timestamp;pressure;altitude;pressure_sealevel;temperature
33267;BMP180;19638;49.080;11.896;2023-05-14T00:00:17;96327.00;;;11.10
33267;BMP180;19638;49.080;11.896;2023-05-14T00:04:22;96331.00;;;11.10
33267;BMP180;19638;49.080;11.896;2023-05-14T00:08:25;96329.00;;;11.10
33267;BMP180;19638;49.080;11.896;2023-05-14T00:12:28;96329.00;;;11.20
33267;BMP180;19638;49.080;11.896;2023-05-14T00:16:33;96325.00;;;11.20
33267;BMP180;19638;49.080;11.896;2023-05-14T00:20:42;96318.00;;;11.30
33267;BMP180;19638;49.080;11.896;2023-05-14T00:24:47;96316.00;;;11.40
33267;BMP180;19638;49.080;11.896;2023-05-14T00:28:53;96314.00;;;11.50
33267;BMP180;19638;49.080;11.896;2023-05-14T00:32:58;96309.00;;;11.50
33267;BMP180;19638;49.080;11.896;2023-05-14T00:37:04;96310.00;;;11.60
33267;BMP180;19638;49.080;11.896;2023-05-14T00:41:09;96309.00;;;11.60
33267;BMP180;19638;49.080;11.896;2023-05-14T00:45:12;96311.00;;;11.70
33267;BMP180;19638;49.080;11.896;2023-05-14T00:49:16;96306.00;;;11.70
33267;BMP180;19638;49.080;11.896;2023-05-14T00:53:23;96302.00;;;11.70
33267;BMP180;19638;49.080;11.896;2023-05-14T00:57:26;96304.00;;;11.70
33267;BMP180;19638;49.080;11.896;2023-05-14T01:01:31;96311.00;;;11.80
33267;BMP180;19638;49.080;11.896;2023-05-14T01:05:49;96306.00;;;11.80
33267;BMP180;19638;49.080;11.896;2023-05-14T01:10:04;96300.00;;;11.80
33267;BMP180;19638;49.080;11.896;2023-05-14T01:14:19;96306.00;;;11.80
33267;BMP180;19638;49.080;11.896;2023-05-14T01:18:27;96301.00;;;11.80
33267;BMP180;19638;49.080;11.896;2023-05-14T01:22:32;96291.00;;;11.80
33267;BMP180;19638;49.080;11.896;2023-05-14T01:26:36;96296.00;;;11.80
33267;BMP180;19638;49.080;11.896;2023-05-14T01:30:45;96287.00;;;11.80
33267;BMP180;19638;49.080;11.896;2023-05-14T01:34:52;96291.00;;;11.80
33267;BMP180;19638;49.080;11.896;2023-05-14T01:39:03;96289.00;;;11.80
33267;BMP180;19638;49.080;11.896;2023-05-14T01:43:10;96278.00;;;11.80
33267;BMP180;19638;49.080;11.896;2023-05-14T01:47:13;96276.00;;;11.80
33267;BMP180;19638;49.080;11.896;2023-05-14T01:51:20;96279.00;;;11.70
33267;BMP180;19638;49.080;11.896;2023-05-14T01:55:29;96280.00;;;11.70
33267;BMP180;19638;49.080;11.896;2023-05-14T01:59:34;96277.00;;;11.70
33267;BMP180;19638;49.080;11.896;2023-05-14T02:03:38;96278.00;;;11.60
33267;BMP180;19638;49.080;11.896;2023-05-14T02:07:41;96279.00;;;11.50
33267;BMP180;19638;49.080;11.896;2023-05-14T02:11:51;96272.00;;;11.50
33267;BMP180;19638;49.080;11.896;2023-05-14T02:15:54;96279.00;;;11.40
33267;BMP180;19638;49.080;11.896;2023-05-14T02:19:59;96274.00;;;11.40
33267;BMP180;19638;49.080;11.896;2023-05-14T02:24:06;96264.00;;;11.30
33267;BMP180;19638;49.080;11.896;2023-05-14T02:28:11;96266.00;;;11.30
33267;BMP180;19638;49.080;11.896;2023-05-14T02:32:14;96266.00;;;11.30
33267;BMP180;19638;49.080;11.896;2023-05-14T02:36:21;96262.00;;;11.30
33267;BMP180;19638;49.080;11.896;2023-05-14T02:40:29;96253.00;;;11.20
33267;BMP180;19638;49.080;11.896;2023-05-14T02:44:36;96266.00;;;11.20
33267;BMP180;19638;49.080;11.896;2023-05-14T02:48:39;96249.00;;;11.20
33267;BMP180;19638;49.080;11.896;2023-05-14T02:52:45;96248.00;;;11.10
33267;BMP180;19638;49.080;11.896;2023-05-14T02:56:50;96242.00;;;11.10
33267;BMP180;19638;49.080;11.896;2023-05-14T03:05:13;96243.00;;;10.90
33267;BMP180;19638;49.080;11.896;2023-05-14T03:09:18;96238.00;;;10.80
33267;BMP180;19638;49.080;11.896;2023-05-14T03:13:23;96242.00;;;10.80
33267;BMP180;19638;49.080;11.896;2023-05-14T03:17:29;96238.00;;;10.70
33267;BMP180;19638;49.080;11.896;2023-05-14T03:21:34;96233.00;;;10.60
33267;BMP180;19638;49.080;11.896;2023-05-14T03:25:37;96236.00;;;10.50
33267;BMP180;19638;49.080;11.896;2023-05-14T03:29:45;96233.00;;;10.40
33267;BMP180;19638;49.080;11.896;2023-05-14T03:33:49;96227.00;;;10.30
33267;BMP180;19638;49.080;11.896;2023-05-14T03:37:54;96230.00;;;10.20
33267;BMP180;19638;49.080;11.896;2023-05-14T03:42:00;96231.00;;;10.20
33267;BMP180;19638;49.080;11.896;2023-05-14T03:46:03;96232.00;;;10.10
33267;BMP180;19638;49.080;11.896;2023-05-14T03:50:07;96221.00;;;10.10
33267;BMP180;19638;49.080;11.896;2023-05-14T03:54:14;96223.00;;;10.10
33267;BMP180;19638;49.080;11.896;2023-05-14T03:58:17;96223.00;;;10.10
33267;BMP180;19638;49.080;11.896;2023-05-14T04:02:21;96217.00;;;10.10
33267;BMP180;19638;49.080;11.896;2023-05-14T04:06:28;96221.00;;;10.10
33267;BMP180;19638;49.080;11.896;2023-05-14T04:10:33;96211.00;;;10.10
33267;BMP180;19638;49.080;11.896;2023-05-14T04:14:38;96219.00;;;10.10
33267;BMP180;19638;49.080;11.896;2023-05-14T04:18:45;96213.00;;;10.10
33267;BMP180;19638;49.080;11.896;2023-05-14T04:22:49;96217.00;;;10.10
33267;BMP180;19638;49.080;11.896;2023-05-14T04:26:56;96214.00;;;10.20
33267;BMP180;19638;49.080;11.896;2023-05-14T04:30:59;96208.00;;;10.20
33267;BMP180;19638;49.080;11.896;2023-05-14T04:35:03;96210.00;;;10.30
33267;BMP180;19638;49.080;11.896;2023-05-14T04:39:06;96214.00;;;10.40
33267;BMP180;19638;49.080;11.896;2023-05-14T04:43:12;96216.00;;;10.50
33267;BMP180;19638;49.080;11.896;2023-05-14T04:47:16;96212.00;;;10.60
33267;BMP180;19638;49.080;11.896;2023-05-14T04:51:22;96212.00;;;10.70
33267;BMP180;19638;49.080;11.896;2023-05-14T04:55:32;96209.00;;;10.80
33267;BMP180;19638;49.080;11.896;2023-05-14T04:59:38;96215.00;;;11.00
33267;BMP180;19638;49.080;11.896;2023-05-14T05:03:41;96212.00;;;11.10
33267;BMP180;19638;49.080;11.896;2023-05-14T05:07:44;96221.00;;;11.30
33267;BMP180;19638;49.080;11.896;2023-05-14T05:11:47;96228.00;;;11.50
33267;BMP180;19638;49.080;11.896;2023-05-14T05:15:54;96228.00;;;11.70
33267;BMP180;19638;49.080;11.896;2023-05-14T05:20:00;96233.00;;;11.90
33267;BMP180;19638;49.080;11.896;2023-05-14T05:24:05;96231.00;;;12.00
33267;BMP180;19638;49.080;11.896;2023-05-14T05:28:13;96231.00;;;12.10
33267;BMP180;19638;49.080;11.896;2023-05-14T05:32:21;96223.00;;;12.20
33267;BMP180;19638;49.080;11.896;2023-05-14T05:36:25;96223.00;;;12.40
33267;BMP180;19638;49.080;11.896;2023-05-14T05:40:31;96221.00;;;12.60
33267;BMP180;19638;49.080;11.896;2023-05-14T05:44:41;96214.00;;;12.70
33267;BMP180;19638;49.080;11.896;2023-05-14T05:48:49;96229.00;;;12.90
33267;BMP180;19638;49.080;11.896;2023-05-14T05:52:54;96216.00;;;13.20
33267;BMP180;19638;49.080;11.896;2023-05-14T05:56:59;96223.00;;;13.40
33267;BMP180;19638;49.080;11.896;2023-05-14T06:01:05;96228.00;;;13.50
33267;BMP180;19638;49.080;11.896;2023-05-14T06:05:10;96233.00;;;13.70
33267;BMP180;19638;49.080;11.896;2023-05-14T06:09:15;96231.00;;;13.70
33267;BMP180;19638;49.080;11.896;2023-05-14T06:13:19;96230.00;;;13.90
33267;BMP180;19638;49.080;11.896;2023-05-14T06:17:22;96233.00;;;13.90
33267;BMP180;19638;49.080;11.896;2023-05-14T06:21:29;96232.00;;;13.80
33267;BMP180;19638;49.080;11.896;2023-05-14T06:25:33;96239.00;;;13.80
33267;BMP180;19638;49.080;11.896;2023-05-14T06:29:36;96230.00;;;13.90
33267;BMP180;19638;49.080;11.896;2023-05-14T06:33:41;96236.00;;;14.20
33267;BMP180;19638;49.080;11.896;2023-05-14T06:37:45;96232.00;;;14.20
33267;BMP180;19638;49.080;11.896;2023-05-14T06:41:49;96232.00;;;14.30
33267;BMP180;19638;49.080;11.896;2023-05-14T06:45:54;96229.00;;;14.70
33267;BMP180;19638;49.080;11.896;2023-05-14T06:49:58;96223.00;;;15.10
33267;BMP180;19638;49.080;11.896;2023-05-14T06:54:05;96229.00;;;15.30
33267;BMP180;19638;49.080;11.896;2023-05-14T06:58:08;96228.00;;;15.40
33267;BMP180;19638;49.080;11.896;2023-05-14T07:02:11;96231.00;;;15.40
33267;BMP180;19638;49.080;11.896;2023-05-14T07:06:16;96231.00;;;15.60
33267;BMP180;19638;49.080;11.896;2023-05-14T07:10:21;96228.00;;;15.80
33267;BMP180;19638;49.080;11.896;2023-05-14T07:14:27;96230.00;;;15.90
33267;BMP180;19638;49.080;11.896;2023-05-14T07:18:30;96235.00;;;16.00
33267;BMP180;19638;49.080;11.896;2023-05-14T07:22:33;96227.00;;;16.10
33267;BMP180;19638;49.080;11.896;2023-05-14T07:26:39;96237.00;;;16.20
33267;BMP180;19638;49.080;11.896;2023-05-14T07:30:42;96221.00;;;16.40
33267;BMP180;19638;49.080;11.896;2023-05-14T07:38:59;96215.00;;;17.40
33267;BMP180;19638;49.080;11.896;2023-05-14T07:43:05;96207.00;;;17.60
33267;BMP180;19638;49.080;11.896;2023-05-14T07:47:10;96212.00;;;17.50
33267;BMP180;19638;49.080;11.896;2023-05-14T07:51:13;96214.00;;;18.00
33267;BMP180;19638;49.080;11.896;2023-05-14T07:55:17;96212.00;;;18.60
33267;BMP180;19638;49.080;11.896;2023-05-14T07:59:22;96207.00;;;18.80
33267;BMP180;19638;49.080;11.896;2023-05-14T08:03:30;96204.00;;;19.30
33267;BMP180;19638;49.080;11.896;2023-05-14T08:07:35;96202.00;;;19.50
33267;BMP180;19638;49.080;11.896;2023-05-14T08:11:38;96206.00;;;19.40
33267;BMP180;19638;49.080;11.896;2023-05-14T08:15:46;96199.00;;;19.40
33267;BMP180;19638;49.080;11.896;2023-05-14T08:19:52;96198.00;;;19.60
33267;BMP180;19638;49.080;11.896;2023-05-14T08:23:59;96193.00;;;19.50
33267;BMP180;19638;49.080;11.896;2023-05-14T08:28:02;96189.00;;;19.80
33267;BMP180;19638;49.080;11.896;2023-05-14T08:32:07;96181.00;;;20.10
33267;BMP180;19638;49.080;11.896;2023-05-14T08:36:24;96168.00;;;19.80
33267;BMP180;19638;49.080;11.896;2023-05-14T08:40:27;96167.00;;;20.90
33267;BMP180;19638;49.080;11.896;2023-05-14T08:44:37;96150.00;;;20.30
33267;BMP180;19638;49.080;11.896;2023-05-14T08:48:47;96156.00;;;19.80
33267;BMP180;19638;49.080;11.896;2023-05-14T08:52:53;96160.00;;;19.80
33267;BMP180;19638;49.080;11.896;2023-05-14T08:56:56;96168.00;;;19.70
33267;BMP180;19638;49.080;11.896;2023-05-14T09:00:59;96161.00;;;19.70
33267;BMP180;19638;49.080;11.896;2023-05-14T09:05:09;96158.00;;;20.90
33267;BMP180;19638;49.080;11.896;2023-05-14T09:09:13;96158.00;;;20.60
33267;BMP180;19638;49.080;11.896;2023-05-14T09:13:19;96147.00;;;20.60
33267;BMP180;19638;49.080;11.896;2023-05-14T09:17:24;96148.00;;;21.00
33267;BMP180;19638;49.080;11.896;2023-05-14T09:21:29;96151.00;;;21.60
33267;BMP180;19638;49.080;11.896;2023-05-14T09:25:34;96151.00;;;21.70
33267;BMP180;19638;49.080;11.896;2023-05-14T09:29:37;96150.00;;;21.60
33267;BMP180;19638;49.080;11.896;2023-05-14T09:33:40;96156.00;;;22.80
33267;BMP180;19638;49.080;11.896;2023-05-14T09:37:46;96156.00;;;22.80
33267;BMP180;19638;49.080;11.896;2023-05-14T09:41:50;96145.00;;;21.70
33267;BMP180;19638;49.080;11.896;2023-05-14T09:45:53;96141.00;;;21.70
33267;BMP180;19638;49.080;11.896;2023-05-14T09:50:01;96136.00;;;21.60
33267;BMP180;19638;49.080;11.896;2023-05-14T09:54:07;96134.00;;;21.70
33267;BMP180;19638;49.080;11.896;2023-05-14T09:58:10;96139.00;;;22.00
33267;BMP180;19638;49.080;11.896;2023-05-14T10:02:21;96137.00;;;22.30
33267;BMP180;19638;49.080;11.896;2023-05-14T10:06:28;96132.00;;;22.40
33267;BMP180;19638;49.080;11.896;2023-05-14T10:10:34;96132.00;;;22.20
33267;BMP180;19638;49.080;11.896;2023-05-14T10:14:40;96122.00;;;22.30
33267;BMP180;19638;49.080;11.896;2023-05-14T10:18:49;96130.00;;;24.10
33267;BMP180;19638;49.080;11.896;2023-05-14T10:23:01;96125.00;;;24.20
33267;BMP180;19638;49.080;11.896;2023-05-14T10:27:07;96119.00;;;23.10
33267;BMP180;19638;49.080;11.896;2023-05-14T10:31:10;96117.00;;;23.10
33267;BMP180;19638;49.080;11.896;2023-05-14T10:35:16;96119.00;;;23.40
33267;BMP180;19638;49.080;11.896;2023-05-14T10:39:22;96111.00;;;22.90
33267;BMP180;19638;49.080;11.896;2023-05-14T10:43:27;96107.00;;;24.20
33267;BMP180;19638;49.080;11.896;2023-05-14T10:47:35;96110.00;;;25.20
33267;BMP180;19638;49.080;11.896;2023-05-14T10:51:39;96100.00;;;24.90
33267;BMP180;19638;49.080;11.896;2023-05-14T10:55:43;96101.00;;;24.30
33267;BMP180;19638;49.080;11.896;2023-05-14T10:59:49;96097.00;;;24.10
33267;BMP180;19638;49.080;11.896;2023-05-14T11:04:04;96097.00;;;24.30
33267;BMP180;19638;49.080;11.896;2023-05-14T11:08:08;96097.00;;;23.90
33267;BMP180;19638;49.080;11.896;2023-05-14T11:12:15;96099.00;;;24.60
33267;BMP180;19638;49.080;11.896;2023-05-14T11:16:20;96097.00;;;23.70
33267;BMP180;19638;49.080;11.896;2023-05-14T11:20:25;96086.00;;;23.00
33267;BMP180;19638;49.080;11.896;2023-05-14T11:24:29;96080.00;;;23.00
33267;BMP180;19638;49.080;11.896;2023-05-14T11:28:35;96085.00;;;22.40
33267;BMP180;19638;49.080;11.896;2023-05-14T11:32:48;96082.00;;;22.00
33267;BMP180;19638;49.080;11.896;2023-05-14T11:36:52;96088.00;;;22.10
33267;BMP180;19638;49.080;11.896;2023-05-14T11:40:57;96073.00;;;23.20
33267;BMP180;19638;49.080;11.896;2023-05-14T11:45:10;96065.00;;;24.30
33267;BMP180;19638;49.080;11.896;2023-05-14T11:49:20;96066.00;;;23.60
33267;BMP180;19638;49.080;11.896;2023-05-14T11:53:28;96066.00;;;23.60
33267;BMP180;19638;49.080;11.896;2023-05-14T11:57:35;96056.00;;;24.70
33267;BMP180;19638;49.080;11.896;2023-05-14T12:01:44;96056.00;;;25.50
33267;BMP180;19638;49.080;11.896;2023-05-14T12:05:56;96049.00;;;26.40
33267;BMP180;19638;49.080;11.896;2023-05-14T12:10:03;96036.00;;;27.40
33267;BMP180;19638;49.080;11.896;2023-05-14T12:14:10;96046.00;;;27.20
33267;BMP180;19638;49.080;11.896;2023-05-14T12:18:23;96030.00;;;26.90
33267;BMP180;19638;49.080;11.896;2023-05-14T12:22:30;96025.00;;;26.00
33267;BMP180;19638;49.080;11.896;2023-05-14T12:26:33;96024.00;;;25.50
33267;BMP180;19638;49.080;11.896;2023-05-14T12:30:39;96017.00;;;24.30
33267;BMP180;19638;49.080;11.896;2023-05-14T12:34:42;96019.00;;;23.70
33267;BMP180;19638;49.080;11.896;2023-05-14T12:38:56;96023.00;;;23.50
33267;BMP180;19638;49.080;11.896;2023-05-14T12:43:04;96009.00;;;23.20
33267;BMP180;19638;49.080;11.896;2023-05-14T12:47:10;96014.00;;;23.10
33267;BMP180;19638;49.080;11.896;2023-05-14T12:51:13;96002.00;;;22.90
33267;BMP180;19638;49.080;11.896;2023-05-14T12:55:17;96007.00;;;22.70
33267;BMP180;19638;49.080;11.896;2023-05-14T12:59:20;96000.00;;;22.60
33267;BMP180;19638;49.080;11.896;2023-05-14T13:03:27;95997.00;;;22.40
33267;BMP180;19638;49.080;11.896;2023-05-14T13:07:30;95998.00;;;22.10
33267;BMP180;19638;49.080;11.896;2023-05-14T13:11:40;95996.00;;;21.80
33267;BMP180;19638;49.080;11.896;2023-05-14T13:15:52;95991.00;;;21.60
33267;BMP180;19638;49.080;11.896;2023-05-14T13:19:56;95985.00;;;21.50
33267;BMP180;19638;49.080;11.896;2023-05-14T13:24:01;95983.00;;;21.40
33267;BMP180;19638;49.080;11.896;2023-05-14T13:28:07;95986.00;;;21.30
33267;BMP180;19638;49.080;11.896;2023-05-14T13:32:10;95981.00;;;21.10
33267;BMP180;19638;49.080;11.896;2023-05-14T13:36:13;95987.00;;;21.00
33267;BMP180;19638;49.080;11.896;2023-05-14T13:40:18;95982.00;;;21.20
33267;BMP180;19638;49.080;11.896;2023-05-14T13:44:24;95974.00;;;21.20
33267;BMP180;19638;49.080;11.896;2023-05-14T13:48:32;95966.00;;;21.00
33267;BMP180;19638;49.080;11.896;2023-05-14T13:52:37;95965.00;;;20.80
33267;BMP180;19638;49.080;11.896;2023-05-14T13:56:41;95960.00;;;20.70
33267;BMP180;19638;49.080;11.896;2023-05-14T14:00:45;95959.00;;;20.70
33267;BMP180;19638;49.080;11.896;2023-05-14T14:04:49;95957.00;;;20.50
33267;BMP180;19638;49.080;11.896;2023-05-14T14:08:55;95958.00;;;20.40
33267;BMP180;19638;49.080;11.896;2023-05-14T14:12:59;95970.00;;;20.50
33267;BMP180;19638;49.080;11.896;2023-05-14T14:17:06;95964.00;;;20.90
33267;BMP180;19638;49.080;11.896;2023-05-14T14:21:11;95966.00;;;20.80
33267;BMP180;19638;49.080;11.896;2023-05-14T14:25:18;95975.00;;;20.80
33267;BMP180;19638;49.080;11.896;2023-05-14T14:29:22;95981.00;;;21.00
33267;BMP180;19638;49.080;11.896;2023-05-14T14:33:29;95979.00;;;20.50
33267;BMP180;19638;49.080;11.896;2023-05-14T14:37:35;95993.00;;;19.90
33267;BMP180;19638;49.080;11.896;2023-05-14T14:41:38;95987.00;;;19.40
33267;BMP180;19638;49.080;11.896;2023-05-14T14:45:45;96001.00;;;19.10
33267;BMP180;19638;49.080;11.896;2023-05-14T14:49:51;95992.00;;;18.80
33267;BMP180;19638;49.080;11.896;2023-05-14T14:53:57;96002.00;;;18.20
33267;BMP180;19638;49.080;11.896;2023-05-14T14:58:00;95994.00;;;17.40
33267;BMP180;19638;49.080;11.896;2023-05-14T15:02:03;96001.00;;;16.70
33267;BMP180;19638;49.080;11.896;2023-05-14T15:06:08;96009.00;;;16.40
33267;BMP180;19638;49.080;11.896;2023-05-14T15:10:11;96009.00;;;16.40
33267;BMP180;19638;49.080;11.896;2023-05-14T15:14:18;95999.00;;;16.50
33267;BMP180;19638;49.080;11.896;2023-05-14T15:18:25;96002.00;;;16.50
33267;BMP180;19638;49.080;11.896;2023-05-14T15:22:33;95993.00;;;16.40
33267;BMP180;19638;49.080;11.896;2023-05-14T15:26:36;95994.00;;;16.10
33267;BMP180;19638;49.080;11.896;2023-05-14T15:30:41;95999.00;;;15.80
33267;BMP180;19638;49.080;11.896;2023-05-14T15:34:44;95991.00;;;15.50
33267;BMP180;19638;49.080;11.896;2023-05-14T15:38:52;95988.00;;;15.30
33267;BMP180;19638;49.080;11.896;2023-05-14T15:42:56;95979.00;;;15.00
33267;BMP180;19638;49.080;11.896;2023-05-14T15:47:04;95990.00;;;14.80
33267;BMP180;19638;49.080;11.896;2023-05-14T15:51:09;95988.00;;;14.70
33267;BMP180;19638;49.080;11.896;2023-05-14T15:55:17;95995.00;;;14.70
33267;BMP180;19638;49.080;11.896;2023-05-14T15:59:21;95998.00;;;14.90
33267;BMP180;19638;49.080;11.896;2023-05-14T16:03:26;95993.00;;;15.00
33267;BMP180;19638;49.080;11.896;2023-05-14T16:07:34;95993.00;;;15.10
33267;BMP180;19638;49.080;11.896;2023-05-14T16:11:39;95995.00;;;15.00
33267;BMP180;19638;49.080;11.896;2023-05-14T16:15:42;95992.00;;;15.10
33267;BMP180;19638;49.080;11.896;2023-05-14T16:19:46;95996.00;;;15.10
33267;BMP180;19638;49.080;11.896;2023-05-14T16:23:58;95993.00;;;15.10
33267;BMP180;19638;49.080;11.896;2023-05-14T16:28:11;96000.00;;;15.10
33267;BMP180;19638;49.080;11.896;2023-05-14T16:32:14;95987.00;;;14.90
33267;BMP180;19638;49.080;11.896;2023-05-14T16:36:18;95983.00;;;14.80
33267;BMP180;19638;49.080;11.896;2023-05-14T16:40:21;95984.00;;;15.00
33267;BMP180;19638;49.080;11.896;2023-05-14T16:44:28;95983.00;;;15.90
33267;BMP180;19638;49.080;11.896;2023-05-14T16:48:31;95981.00;;;17.00
33267;BMP180;19638;49.080;11.896;2023-05-14T16:52:35;95976.00;;;17.90
33267;BMP180;19638;49.080;11.896;2023-05-14T16:56:41;95978.00;;;18.60
33267;BMP180;19638;49.080;11.896;2023-05-14T17:00:51;95964.00;;;19.30
33267;BMP180;19638;49.080;11.896;2023-05-14T17:04:57;95970.00;;;19.50
33267;BMP180;19638;49.080;11.896;2023-05-14T17:09:03;95977.00;;;19.00
33267;BMP180;19638;49.080;11.896;2023-05-14T17:13:07;95973.00;;;18.50
33267;BMP180;19638;49.080;11.896;2023-05-14T17:17:12;95976.00;;;17.90
33267;BMP180;19638;49.080;11.896;2023-05-14T17:21:15;95965.00;;;17.40
33267;BMP180;19638;49.080;11.896;2023-05-14T17:25:19;95975.00;;;16.90
33267;BMP180;19638;49.080;11.896;2023-05-14T17:29:24;95965.00;;;16.60
33267;BMP180;19638;49.080;11.896;2023-05-14T17:33:31;95975.00;;;16.30
33267;BMP180;19638;49.080;11.896;2023-05-14T17:37:34;95975.00;;;15.90
33267;BMP180;19638;49.080;11.896;2023-05-14T17:41:45;95978.00;;;15.90
33267;BMP180;19638;49.080;11.896;2023-05-14T17:45:49;95971.00;;;16.20
33267;BMP180;19638;49.080;11.896;2023-05-14T17:49:57;95970.00;;;16.60
33267;BMP180;19638;49.080;11.896;2023-05-14T17:54:00;95966.00;;;16.70
33267;BMP180;19638;49.080;11.896;2023-05-14T17:58:03;95961.00;;;16.20
33267;BMP180;19638;49.080;11.896;2023-05-14T18:02:12;95959.00;;;15.70
33267;BMP180;19638;49.080;11.896;2023-05-14T18:06:16;95955.00;;;15.20
33267;BMP180;19638;49.080;11.896;2023-05-14T18:10:19;95956.00;;;14.80
33267;BMP180;19638;49.080;11.896;2023-05-14T18:14:22;95949.00;;;14.50
33267;BMP180;19638;49.080;11.896;2023-05-14T18:18:28;95942.00;;;14.30
33267;BMP180;19638;49.080;11.896;2023-05-14T18:22:36;95950.00;;;14.10
33267;BMP180;19638;49.080;11.896;2023-05-14T18:26:39;95941.00;;;13.90
33267;BMP180;19638;49.080;11.896;2023-05-14T18:30:44;95933.00;;;13.70
33267;BMP180;19638;49.080;11.896;2023-05-14T18:34:49;95939.00;;;13.50
33267;BMP180;19638;49.080;11.896;2023-05-14T18:38:53;95937.00;;;13.30
33267;BMP180;19638;49.080;11.896;2023-05-14T18:42:56;95933.00;;;13.10
33267;BMP180;19638;49.080;11.896;2023-05-14T18:47:00;95933.00;;;12.90
33267;BMP180;19638;49.080;11.896;2023-05-14T18:51:08;95933.00;;;12.80
33267;BMP180;19638;49.080;11.896;2023-05-14T18:55:14;95932.00;;;12.60
33267;BMP180;19638;49.080;11.896;2023-05-14T18:59:19;95933.00;;;12.50
33267;BMP180;19638;49.080;11.896;2023-05-14T19:03:23;95936.00;;;12.40
33267;BMP180;19638;49.080;11.896;2023-05-14T19:07:32;95935.00;;;12.30
33267;BMP180;19638;49.080;11.896;2023-05-14T19:11:37;95937.00;;;12.20
33267;BMP180;19638;49.080;11.896;2023-05-14T19:15:40;95940.00;;;12.00
33267;BMP180;19638;49.080;11.896;2023-05-14T19:19:43;95940.00;;;11.90
33267;BMP180;19638;49.080;11.896;2023-05-14T19:23:46;95938.00;;;11.70
33267;BMP180;19638;49.080;11.896;2023-05-14T19:27:51;95945.00;;;11.60
33267;BMP180;19638;49.080;11.896;2023-05-14T19:31:55;95944.00;;;11.50
33267;BMP180;19638;49.080;11.896;2023-05-14T19:36:01;95951.00;;;11.30
33267;BMP180;19638;49.080;11.896;2023-05-14T19:40:06;95945.00;;;11.20
33267;BMP180;19638;49.080;11.896;2023-05-14T19:44:11;95939.00;;;11.10
33267;BMP180;19638;49.080;11.896;2023-05-14T19:48:15;95941.00;;;11.00
33267;BMP180;19638;49.080;11.896;2023-05-14T19:52:21;95944.00;;;10.90
33267;BMP180;19638;49.080;11.896;2023-05-14T19:56:28;95940.00;;;10.80
33267;BMP180;19638;49.080;11.896;2023-05-14T20:00:33;95943.00;;;10.60
33267;BMP180;19638;49.080;11.896;2023-05-14T20:04:42;95940.00;;;10.60
33267;BMP180;19638;49.080;11.896;2023-05-14T20:08:46;95940.00;;;10.60
33267;BMP180;19638;49.080;11.896;2023-05-14T20:12:50;95940.00;;;10.70
33267;BMP180;19638;49.080;11.896;2023-05-14T20:16:58;95931.00;;;10.80
33267;BMP180;19638;49.080;11.896;2023-05-14T20:21:03;95934.00;;;10.80
33267;BMP180;19638;49.080;11.896;2023-05-14T20:25:11;95939.00;;;10.90
33267;BMP180;19638;49.080;11.896;2023-05-14T20:29:17;95944.00;;;11.00
33267;BMP180;19638;49.080;11.896;2023-05-14T20:33:21;95937.00;;;11.10
33267;BMP180;19638;49.080;11.896;2023-05-14T20:37:24;95938.00;;;11.20
33267;BMP180;19638;49.080;11.896;2023-05-14T20:41:28;95930.00;;;11.30
33267;BMP180;19638;49.080;11.896;2023-05-14T20:45:31;95936.00;;;11.40
33267;BMP180;19638;49.080;11.896;2023-05-14T20:49:38;95937.00;;;11.40
33267;BMP180;19638;49.080;11.896;2023-05-14T20:53:41;95931.00;;;11.50
33267;BMP180;19638;49.080;11.896;2023-05-14T20:57:44;95932.00;;;11.60
33267;BMP180;19638;49.080;11.896;2023-05-14T21:01:51;95925.00;;;11.60
33267;BMP180;19638;49.080;11.896;2023-05-14T21:05:55;95927.00;;;11.60
33267;BMP180;19638;49.080;11.896;2023-05-14T21:09:58;95926.00;;;11.50
33267;BMP180;19638;49.080;11.896;2023-05-14T21:14:02;95930.00;;;11.40
33267;BMP180;19638;49.080;11.896;2023-05-14T21:18:05;95926.00;;;11.40
33267;BMP180;19638;49.080;11.896;2023-05-14T21:22:11;95924.00;;;11.30
33267;BMP180;19638;49.080;11.896;2023-05-14T21:26:19;95921.00;;;11.30
33267;BMP180;19638;49.080;11.896;2023-05-14T21:30:23;95922.00;;;11.40
33267;BMP180;19638;49.080;11.896;2023-05-14T21:34:26;95918.00;;;11.40
33267;BMP180;19638;49.080;11.896;2023-05-14T21:38:38;95923.00;;;11.40
33267;BMP180;19638;49.080;11.896;2023-05-14T21:42:41;95925.00;;;11.40
33267;BMP180;19638;49.080;11.896;2023-05-14T21:46:45;95923.00;;;11.40
33267;BMP180;19638;49.080;11.896;2023-05-14T21:50:48;95920.00;;;11.40
33267;BMP180;19638;49.080;11.896;2023-05-14T21:54:53;95917.00;;;11.40
33267;BMP180;19638;49.080;11.896;2023-05-14T21:58:57;95914.00;;;11.40
33267;BMP180;19638;49.080;11.896;2023-05-14T22:03:01;95915.00;;;11.30
33267;BMP180;19638;49.080;11.896;2023-05-14T22:07:09;95919.00;;;11.30
33267;BMP180;19638;49.080;11.896;2023-05-14T22:11:15;95923.00;;;11.20
33267;BMP180;19638;49.080;11.896;2023-05-14T22:15:20;95914.00;;;11.30
33267;BMP180;19638;49.080;11.896;2023-05-14T22:19:23;95900.00;;;11.30
33267;BMP180;19638;49.080;11.896;2023-05-14T22:23:27;95899.00;;;11.30
33267;BMP180;19638;49.080;11.896;2023-05-14T22:27:33;95891.00;;;11.20
33267;BMP180;19638;49.080;11.896;2023-05-14T22:31:37;95889.00;;;11.20
33267;BMP180;19638;49.080;11.896;2023-05-14T22:35:41;95893.00;;;11.10
33267;BMP180;19638;49.080;11.896;2023-05-14T22:39:44;95898.00;;;11.00
33267;BMP180;19638;49.080;11.896;2023-05-14T22:43:49;95884.00;;;10.90
33267;BMP180;19638;49.080;11.896;2023-05-14T22:47:53;95885.00;;;10.80
33267;BMP180;19638;49.080;11.896;2023-05-14T22:52:01;95886.00;;;10.70
33267;BMP180;19638;49.080;11.896;2023-05-14T22:56:08;95878.00;;;10.60
33267;BMP180;19638;49.080;11.896;2023-05-14T23:00:16;95876.00;;;10.60
33267;BMP180;19638;49.080;11.896;2023-05-14T23:04:22;95873.00;;;10.50
33267;BMP180;19638;49.080;11.896;2023-05-14T23:08:27;95869.00;;;10.40
33267;BMP180;19638;49.080;11.896;2023-05-14T23:12:31;95865.00;;;10.40
33267;BMP180;19638;49.080;11.896;2023-05-14T23:16:39;95858.00;;;10.40
33267;BMP180;19638;49.080;11.896;2023-05-14T23:20:45;95852.00;;;10.40